sensor_id;sensor_type;location;lat;lon;timestamp;P1;durP1;ratioP1;P2;durP2;ratioP2
3465;SDS011;1747;48.884;9.160;2023-04-25T00:01:55;5.15;;;1.70;;
3465;SDS011;1747;48.884;9.160;2023-04-25T00:04:24;2.33;;;1.58;;
3465;SDS011;1747;48.884;9.160;2023-04-25T00:06:52;2.55;;;1.70;;
3465;SDS011;1747;48.884;9.160;2023-04-25T00:09:19;2.05;;;1.67;;
3465;SDS011;1747;48.884;9.160;2023-04-25T00:11:46;4.82;;;1.60;;
3465;SDS011;1747;48.884;9.160;2023-04-25T00:14:13;2.30;;;1.55;;
3465;SDS011;1747;48.884;9.160;2023-04-25T00:16:40;2.70;;;1.65;;
3465;SDS011;1747;48.884;9.160;2023-04-25T00:19:09;2.65;;;1.77;;
3465;SDS011;1747;48.884;9.160;2023-04-25T00:21:37;2.63;;;1.83;;
3465;SDS011;1747;48.884;9.160;2023-04-25T00:24:05;3.00;;;1.67;;
3465;SDS011;1747;48.884;9.160;2023-04-25T00:26:33;2.88;;;2.10;;
3465;SDS011;1747;48.884;9.160;2023-04-25T00:29:00;3.25;;;1.92;;
3465;SDS011;1747;48.884;9.160;2023-04-25T00:31:26;1.98;;;1.80;;
3465;SDS011;1747;48.884;9.160;2023-04-25T00:33:54;3.03;;;2.13;;
3465;SDS011;1747;48.884;9.160;2023-04-25T00:36:20;3.47;;;2.08;;
3465;SDS011;1747;48.884;9.160;2023-04-25T00:38:49;3.80;;;2.10;;
3465;SDS011;1747;48.884;9.160;2023-04-25T00:41:15;3.53;;;2.10;;
3465;SDS011;1747;48.884;9.160;2023-04-25T00:43:43;2.97;;;2.10;;
3465;SDS011;1747;48.884;9.160;2023-04-25T00:46:10;2.17;;;1.90;;
3465;SDS011;1747;48.884;9.160;2023-04-25T00:48:38;4.35;;;1.80;;
3465;SDS011;1747;48.884;9.160;2023-04-25T00:51:04;2.08;;;1.88;;
3465;SDS011;1747;48.884;9.160;2023-04-25T00:53:32;2.00;;;1.80;;
3465;SDS011;1747;48.884;9.160;2023-04-25T00:56:00;3.50;;;2.03;;
3465;SDS011;1747;48.884;9.160;2023-04-25T00:58:27;2.58;;;2.20;;
3465;SDS011;1747;48.884;9.160;2023-04-25T01:00:54;4.10;;;2.00;;
3465;SDS011;1747;48.884;9.160;2023-04-25T01:03:22;2.83;;;1.73;;
3465;SDS011;1747;48.884;9.160;2023-04-25T01:05:49;3.17;;;1.50;;
3465;SDS011;1747;48.884;9.160;2023-04-25T01:08:17;2.90;;;1.80;;
3465;SDS011;1747;48.884;9.160;2023-04-25T01:10:44;2.33;;;1.75;;
3465;SDS011;1747;48.884;9.160;2023-04-25T01:13:13;3.15;;;1.65;;
3465;SDS011;1747;48.884;9.160;2023-04-25T01:15:39;2.75;;;1.73;;
3465;SDS011;1747;48.884;9.160;2023-04-25T01:18:06;2.38;;;1.55;;
3465;SDS011;1747;48.884;9.160;2023-04-25T01:20:33;3.03;;;2.08;;
3465;SDS011;1747;48.884;9.160;2023-04-25T01:23:01;2.75;;;1.70;;
3465;SDS011;1747;48.884;9.160;2023-04-25T01:25:28;1.60;;;1.50;;
3465;SDS011;1747;48.884;9.160;2023-04-25T01:27:56;2.45;;;1.50;;
3465;SDS011;1747;48.884;9.160;2023-04-25T01:30:23;3.35;;;1.80;;
3465;SDS011;1747;48.884;9.160;2023-04-25T01:32:52;2.95;;;2.20;;
3465;SDS011;1747;48.884;9.160;2023-04-25T01:35:21;3.35;;;2.20;;
3465;SDS011;1747;48.884;9.160;2023-04-25T01:37:50;2.63;;;1.83;;
3465;SDS011;1747;48.884;9.160;2023-04-25T01:40:19;2.83;;;2.00;;
3465;SDS011;1747;48.884;9.160;2023-04-25T01:42:47;3.45;;;2.17;;
3465;SDS011;1747;48.884;9.160;2023-04-25T01:45:14;1.90;;;1.70;;
3465;SDS011;1747;48.884;9.160;2023-04-25T01:47:41;2.40;;;1.70;;
3465;SDS011;1747;48.884;9.160;2023-04-25T01:50:12;4.57;;;2.10;;
3465;SDS011;1747;48.884;9.160;2023-04-25T01:52:38;2.15;;;1.88;;
3465;SDS011;1747;48.884;9.160;2023-04-25T01:55:06;2.88;;;1.70;;
3465;SDS011;1747;48.884;9.160;2023-04-25T01:57:34;3.85;;;1.88;;
3465;SDS011;1747;48.884;9.160;2023-04-25T02:00:02;4.43;;;1.70;;
3465;SDS011;1747;48.884;9.160;2023-04-25T02:02:31;4.07;;;1.83;;
3465;SDS011;1747;48.884;9.160;2023-04-25T02:04:58;2.22;;;2.03;;
3465;SDS011;1747;48.884;9.160;2023-04-25T02:07:25;4.05;;;2.45;;
3465;SDS011;1747;48.884;9.160;2023-04-25T02:09:53;2.75;;;1.60;;
3465;SDS011;1747;48.884;9.160;2023-04-25T02:12:19;2.85;;;1.73;;
3465;SDS011;1747;48.884;9.160;2023-04-25T02:14:48;2.33;;;1.92;;
3465;SDS011;1747;48.884;9.160;2023-04-25T02:17:14;3.65;;;2.20;;
3465;SDS011;1747;48.884;9.160;2023-04-25T02:19:42;2.30;;;2.00;;
3465;SDS011;1747;48.884;9.160;2023-04-25T02:22:08;3.38;;;1.90;;
3465;SDS011;1747;48.884;9.160;2023-04-25T02:24:35;2.67;;;2.08;;
3465;SDS011;1747;48.884;9.160;2023-04-25T02:27:02;3.50;;;2.03;;
3465;SDS011;1747;48.884;9.160;2023-04-25T02:29:29;3.17;;;2.08;;
3465;SDS011;1747;48.884;9.160;2023-04-25T02:31:57;2.88;;;2.05;;
3465;SDS011;1747;48.884;9.160;2023-04-25T02:34:24;2.53;;;2.03;;
3465;SDS011;1747;48.884;9.160;2023-04-25T02:36:51;2.58;;;1.88;;
3465;SDS011;1747;48.884;9.160;2023-04-25T02:39:18;5.10;;;2.47;;
3465;SDS011;1747;48.884;9.160;2023-04-25T02:41:47;3.72;;;2.15;;
3465;SDS011;1747;48.884;9.160;2023-04-25T02:44:13;5.30;;;2.13;;
3465;SDS011;1747;48.884;9.160;2023-04-25T02:46:40;2.47;;;1.80;;
3465;SDS011;1747;48.884;9.160;2023-04-25T02:49:09;4.28;;;2.33;;
3465;SDS011;1747;48.884;9.160;2023-04-25T02:51:35;3.63;;;2.20;;
3465;SDS011;1747;48.884;9.160;2023-04-25T02:54:02;2.42;;;1.80;;
3465;SDS011;1747;48.884;9.160;2023-04-25T02:56:30;3.33;;;2.47;;
3465;SDS011;1747;48.884;9.160;2023-04-25T02:58:56;3.10;;;2.22;;
3465;SDS011;1747;48.884;9.160;2023-04-25T03:01:23;4.40;;;2.25;;
3465;SDS011;1747;48.884;9.160;2023-04-25T03:03:50;2.85;;;2.10;;
3465;SDS011;1747;48.884;9.160;2023-04-25T03:06:18;5.65;;;2.20;;
3465;SDS011;1747;48.884;9.160;2023-04-25T03:08:45;2.72;;;2.05;;
3465;SDS011;1747;48.884;9.160;2023-04-25T03:11:14;4.15;;;2.08;;
3465;SDS011;1747;48.884;9.160;2023-04-25T03:13:41;2.20;;;1.92;;
3465;SDS011;1747;48.884;9.160;2023-04-25T03:16:08;3.17;;;1.90;;
3465;SDS011;1747;48.884;9.160;2023-04-25T03:18:34;3.60;;;2.17;;
3465;SDS011;1747;48.884;9.160;2023-04-25T03:21:01;2.78;;;2.08;;
3465;SDS011;1747;48.884;9.160;2023-04-25T03:23:30;8.45;;;2.00;;
3465;SDS011;1747;48.884;9.160;2023-04-25T03:25:56;4.07;;;2.30;;
3465;SDS011;1747;48.884;9.160;2023-04-25T03:28:23;2.97;;;2.17;;
3465;SDS011;1747;48.884;9.160;2023-04-25T03:30:50;3.95;;;2.25;;
3465;SDS011;1747;48.884;9.160;2023-04-25T03:33:17;2.70;;;2.10;;
3465;SDS011;1747;48.884;9.160;2023-04-25T03:35:44;3.85;;;2.20;;
3465;SDS011;1747;48.884;9.160;2023-04-25T03:38:10;3.60;;;2.30;;
3465;SDS011;1747;48.884;9.160;2023-04-25T03:40:38;5.40;;;2.20;;
3465;SDS011;1747;48.884;9.160;2023-04-25T03:43:05;3.15;;;2.20;;
3465;SDS011;1747;48.884;9.160;2023-04-25T03:45:32;3.40;;;1.85;;
3465;SDS011;1747;48.884;9.160;2023-04-25T03:47:59;3.13;;;2.17;;
3465;SDS011;1747;48.884;9.160;2023-04-25T03:50:25;4.50;;;2.42;;
3465;SDS011;1747;48.884;9.160;2023-04-25T03:52:52;5.50;;;2.72;;
3465;SDS011;1747;48.884;9.160;2023-04-25T03:55:19;3.30;;;2.65;;
3465;SDS011;1747;48.884;9.160;2023-04-25T03:57:47;3.15;;;2.75;;
3465;SDS011;1747;48.884;9.160;2023-04-25T04:00:14;4.93;;;2.75;;
3465;SDS011;1747;48.884;9.160;2023-04-25T04:02:41;3.33;;;2.70;;
3465;SDS011;1747;48.884;9.160;2023-04-25T04:05:08;5.93;;;3.00;;
3465;SDS011;1747;48.884;9.160;2023-04-25T04:07:35;5.50;;;2.80;;
3465;SDS011;1747;48.884;9.160;2023-04-25T04:10:05;5.20;;;2.53;;
3465;SDS011;1747;48.884;9.160;2023-04-25T04:12:32;4.25;;;3.10;;
3465;SDS011;1747;48.884;9.160;2023-04-25T04:15:01;3.80;;;2.53;;
3465;SDS011;1747;48.884;9.160;2023-04-25T04:17:28;3.83;;;3.10;;
3465;SDS011;1747;48.884;9.160;2023-04-25T04:19:55;4.90;;;2.85;;
3465;SDS011;1747;48.884;9.160;2023-04-25T04:22:22;4.90;;;2.95;;
3465;SDS011;1747;48.884;9.160;2023-04-25T04:24:50;4.60;;;3.10;;
3465;SDS011;1747;48.884;9.160;2023-04-25T04:27:17;7.20;;;3.38;;
3465;SDS011;1747;48.884;9.160;2023-04-25T04:29:45;5.63;;;3.30;;
3465;SDS011;1747;48.884;9.160;2023-04-25T04:32:13;6.55;;;3.53;;
3465;SDS011;1747;48.884;9.160;2023-04-25T04:34:41;5.47;;;3.17;;
3465;SDS011;1747;48.884;9.160;2023-04-25T04:37:07;4.88;;;3.53;;
3465;SDS011;1747;48.884;9.160;2023-04-25T04:39:35;4.32;;;3.22;;
3465;SDS011;1747;48.884;9.160;2023-04-25T04:42:02;5.50;;;3.47;;
3465;SDS011;1747;48.884;9.160;2023-04-25T04:44:30;4.57;;;3.22;;
3465;SDS011;1747;48.884;9.160;2023-04-25T04:46:57;3.97;;;3.30;;
3465;SDS011;1747;48.884;9.160;2023-04-25T04:49:26;5.97;;;3.42;;
3465;SDS011;1747;48.884;9.160;2023-04-25T04:51:53;4.22;;;3.30;;
3465;SDS011;1747;48.884;9.160;2023-04-25T04:54:20;4.47;;;3.50;;
3465;SDS011;1747;48.884;9.160;2023-04-25T04:56:47;3.97;;;3.00;;
3465;SDS011;1747;48.884;9.160;2023-04-25T04:59:14;4.88;;;3.75;;
3465;SDS011;1747;48.884;9.160;2023-04-25T05:01:41;4.28;;;3.20;;
3465;SDS011;1747;48.884;9.160;2023-04-25T05:04:08;6.28;;;3.83;;
3465;SDS011;1747;48.884;9.160;2023-04-25T05:06:36;4.45;;;3.15;;
3465;SDS011;1747;48.884;9.160;2023-04-25T05:09:03;5.20;;;3.83;;
3465;SDS011;1747;48.884;9.160;2023-04-25T05:11:30;4.70;;;3.60;;
3465;SDS011;1747;48.884;9.160;2023-04-25T05:13:57;4.50;;;3.30;;
3465;SDS011;1747;48.884;9.160;2023-04-25T05:16:23;5.53;;;3.70;;
3465;SDS011;1747;48.884;9.160;2023-04-25T05:18:50;4.25;;;3.22;;
3465;SDS011;1747;48.884;9.160;2023-04-25T05:21:17;5.93;;;3.50;;
3465;SDS011;1747;48.884;9.160;2023-04-25T05:23:46;5.25;;;3.33;;
3465;SDS011;1747;48.884;9.160;2023-04-25T05:26:13;5.95;;;3.20;;
3465;SDS011;1747;48.884;9.160;2023-04-25T05:28:40;5.70;;;3.55;;
3465;SDS011;1747;48.884;9.160;2023-04-25T05:31:07;8.95;;;4.20;;
3465;SDS011;1747;48.884;9.160;2023-04-25T05:33:35;4.45;;;3.67;;
3465;SDS011;1747;48.884;9.160;2023-04-25T05:36:02;6.03;;;3.10;;
3465;SDS011;1747;48.884;9.160;2023-04-25T05:38:30;4.95;;;3.35;;
3465;SDS011;1747;48.884;9.160;2023-04-25T05:40:58;7.93;;;3.13;;
3465;SDS011;1747;48.884;9.160;2023-04-25T05:43:25;3.50;;;3.13;;
3465;SDS011;1747;48.884;9.160;2023-04-25T05:45:51;5.43;;;3.13;;
3465;SDS011;1747;48.884;9.160;2023-04-25T05:48:19;4.75;;;3.20;;
3465;SDS011;1747;48.884;9.160;2023-04-25T05:50:45;7.10;;;2.97;;
3465;SDS011;1747;48.884;9.160;2023-04-25T05:53:12;5.07;;;3.20;;
3465;SDS011;1747;48.884;9.160;2023-04-25T05:55:39;4.70;;;2.97;;
3465;SDS011;1747;48.884;9.160;2023-04-25T05:58:07;6.43;;;3.05;;
3465;SDS011;1747;48.884;9.160;2023-04-25T06:00:34;4.28;;;2.97;;
3465;SDS011;1747;48.884;9.160;2023-04-25T06:03:01;3.58;;;2.90;;
3465;SDS011;1747;48.884;9.160;2023-04-25T06:05:28;5.28;;;3.03;;
3465;SDS011;1747;48.884;9.160;2023-04-25T06:07:54;5.35;;;3.30;;
3465;SDS011;1747;48.884;9.160;2023-04-25T06:10:21;4.35;;;2.85;;
3465;SDS011;1747;48.884;9.160;2023-04-25T06:12:48;4.93;;;3.30;;
3465;SDS011;1747;48.884;9.160;2023-04-25T06:15:16;3.38;;;2.70;;
3465;SDS011;1747;48.884;9.160;2023-04-25T06:17:43;3.50;;;2.80;;
3465;SDS011;1747;48.884;9.160;2023-04-25T06:20:11;4.43;;;3.08;;
3465;SDS011;1747;48.884;9.160;2023-04-25T06:22:38;5.03;;;2.85;;
3465;SDS011;1747;48.884;9.160;2023-04-25T06:25:05;5.60;;;2.70;;
3465;SDS011;1747;48.884;9.160;2023-04-25T06:27:32;4.05;;;3.00;;
3465;SDS011;1747;48.884;9.160;2023-04-25T06:29:59;3.22;;;2.63;;
3465;SDS011;1747;48.884;9.160;2023-04-25T06:32:27;4.70;;;3.00;;
3465;SDS011;1747;48.884;9.160;2023-04-25T06:34:55;5.00;;;3.10;;
3465;SDS011;1747;48.884;9.160;2023-04-25T06:37:21;4.68;;;3.25;;
3465;SDS011;1747;48.884;9.160;2023-04-25T06:39:48;3.95;;;3.05;;
3465;SDS011;1747;48.884;9.160;2023-04-25T06:42:15;4.63;;;3.08;;
3465;SDS011;1747;48.884;9.160;2023-04-25T06:44:42;3.95;;;2.90;;
3465;SDS011;1747;48.884;9.160;2023-04-25T06:47:08;4.07;;;3.05;;
3465;SDS011;1747;48.884;9.160;2023-04-25T06:49:37;3.63;;;2.90;;
3465;SDS011;1747;48.884;9.160;2023-04-25T06:52:03;5.40;;;3.13;;
3465;SDS011;1747;48.884;9.160;2023-04-25T06:54:30;5.55;;;3.55;;
3465;SDS011;1747;48.884;9.160;2023-04-25T06:56:57;5.43;;;3.28;;
3465;SDS011;1747;48.884;9.160;2023-04-25T06:59:25;4.28;;;2.95;;
3465;SDS011;1747;48.884;9.160;2023-04-25T07:01:52;3.60;;;3.20;;
3465;SDS011;1747;48.884;9.160;2023-04-25T07:04:19;4.57;;;2.85;;
3465;SDS011;1747;48.884;9.160;2023-04-25T07:06:47;4.55;;;2.90;;
3465;SDS011;1747;48.884;9.160;2023-04-25T07:09:14;3.90;;;2.80;;
3465;SDS011;1747;48.884;9.160;2023-04-25T07:11:41;4.10;;;3.13;;
3465;SDS011;1747;48.884;9.160;2023-04-25T07:14:08;6.72;;;3.13;;
3465;SDS011;1747;48.884;9.160;2023-04-25T07:16:35;4.28;;;3.30;;
3465;SDS011;1747;48.884;9.160;2023-04-25T07:19:02;5.80;;;3.58;;
3465;SDS011;1747;48.884;9.160;2023-04-25T07:21:28;4.95;;;3.72;;
3465;SDS011;1747;48.884;9.160;2023-04-25T07:23:58;4.57;;;3.50;;
3465;SDS011;1747;48.884;9.160;2023-04-25T07:26:25;3.90;;;3.20;;
3465;SDS011;1747;48.884;9.160;2023-04-25T07:28:51;5.32;;;3.10;;
3465;SDS011;1747;48.884;9.160;2023-04-25T07:31:19;8.15;;;3.78;;
3465;SDS011;1747;48.884;9.160;2023-04-25T07:33:46;4.93;;;3.50;;
3465;SDS011;1747;48.884;9.160;2023-04-25T07:36:13;6.15;;;3.25;;
3465;SDS011;1747;48.884;9.160;2023-04-25T07:38:40;5.93;;;3.50;;
3465;SDS011;1747;48.884;9.160;2023-04-25T07:41:08;6.78;;;3.55;;
3465;SDS011;1747;48.884;9.160;2023-04-25T07:43:35;5.55;;;3.15;;
3465;SDS011;1747;48.884;9.160;2023-04-25T07:46:02;5.60;;;3.10;;
3465;SDS011;1747;48.884;9.160;2023-04-25T07:48:28;5.65;;;3.25;;
3465;SDS011;1747;48.884;9.160;2023-04-25T07:50:55;4.63;;;3.58;;
3465;SDS011;1747;48.884;9.160;2023-04-25T07:53:22;4.82;;;3.50;;
3465;SDS011;1747;48.884;9.160;2023-04-25T07:55:49;5.93;;;3.58;;
3465;SDS011;1747;48.884;9.160;2023-04-25T07:58:18;7.13;;;3.80;;
3465;SDS011;1747;48.884;9.160;2023-04-25T08:00:46;5.70;;;3.55;;
3465;SDS011;1747;48.884;9.160;2023-04-25T08:03:13;4.20;;;3.20;;
3465;SDS011;1747;48.884;9.160;2023-04-25T08:05:40;5.63;;;3.50;;
3465;SDS011;1747;48.884;9.160;2023-04-25T08:08:06;4.03;;;3.33;;
3465;SDS011;1747;48.884;9.160;2023-04-25T08:10:33;5.43;;;3.80;;
3465;SDS011;1747;48.884;9.160;2023-04-25T08:13:00;7.38;;;3.67;;
3465;SDS011;1747;48.884;9.160;2023-04-25T08:15:28;5.80;;;4.05;;
3465;SDS011;1747;48.884;9.160;2023-04-25T08:17:55;5.38;;;3.97;;
3465;SDS011;1747;48.884;9.160;2023-04-25T08:20:22;8.63;;;3.50;;
3465;SDS011;1747;48.884;9.160;2023-04-25T08:22:50;5.97;;;3.83;;
3465;SDS011;1747;48.884;9.160;2023-04-25T08:25:16;7.97;;;4.05;;
3465;SDS011;1747;48.884;9.160;2023-04-25T08:27:43;4.75;;;3.25;;
3465;SDS011;1747;48.884;9.160;2023-04-25T08:30:10;3.45;;;3.00;;
3465;SDS011;1747;48.884;9.160;2023-04-25T08:32:39;4.20;;;2.97;;
3465;SDS011;1747;48.884;9.160;2023-04-25T08:35:06;5.90;;;3.47;;
3465;SDS011;1747;48.884;9.160;2023-04-25T08:37:33;7.20;;;2.92;;
3465;SDS011;1747;48.884;9.160;2023-04-25T08:40:01;3.83;;;3.05;;
3465;SDS011;1747;48.884;9.160;2023-04-25T08:42:32;7.55;;;3.38;;
3465;SDS011;1747;48.884;9.160;2023-04-25T08:45:00;5.15;;;3.28;;
3465;SDS011;1747;48.884;9.160;2023-04-25T08:47:28;5.75;;;3.50;;
3465;SDS011;1747;48.884;9.160;2023-04-25T08:50:00;7.15;;;3.42;;
3465;SDS011;1747;48.884;9.160;2023-04-25T08:52:30;7.13;;;3.45;;
3465;SDS011;1747;48.884;9.160;2023-04-25T08:55:02;5.70;;;3.75;;
3465;SDS011;1747;48.884;9.160;2023-04-25T08:57:30;6.32;;;3.60;;
3465;SDS011;1747;48.884;9.160;2023-04-25T08:59:57;7.30;;;4.38;;
3465;SDS011;1747;48.884;9.160;2023-04-25T09:02:25;5.57;;;4.18;;
3465;SDS011;1747;48.884;9.160;2023-04-25T09:04:52;7.28;;;4.57;;
3465;SDS011;1747;48.884;9.160;2023-04-25T09:07:22;6.70;;;4.65;;
3465;SDS011;1747;48.884;9.160;2023-04-25T09:09:50;6.93;;;4.70;;
3465;SDS011;1747;48.884;9.160;2023-04-25T09:12:17;9.07;;;4.90;;
3465;SDS011;1747;48.884;9.160;2023-04-25T09:15:00;6.90;;;5.13;;
3465;SDS011;1747;48.884;9.160;2023-04-25T09:17:30;7.25;;;5.05;;
3465;SDS011;1747;48.884;9.160;2023-04-25T09:20:05;5.53;;;4.15;;
3465;SDS011;1747;48.884;9.160;2023-04-25T09:22:35;6.63;;;4.75;;
3465;SDS011;1747;48.884;9.160;2023-04-25T09:25:02;5.10;;;4.20;;
3465;SDS011;1747;48.884;9.160;2023-04-25T09:27:33;6.18;;;4.30;;
3465;SDS011;1747;48.884;9.160;2023-04-25T09:30:00;6.00;;;4.00;;
3465;SDS011;1747;48.884;9.160;2023-04-25T09:32:27;4.60;;;4.03;;
3465;SDS011;1747;48.884;9.160;2023-04-25T09:34:55;4.80;;;4.18;;
3465;SDS011;1747;48.884;9.160;2023-04-25T09:37:24;5.78;;;4.25;;
3465;SDS011;1747;48.884;9.160;2023-04-25T09:39:54;6.35;;;5.13;;
3465;SDS011;1747;48.884;9.160;2023-04-25T09:42:22;7.32;;;5.03;;
3465;SDS011;1747;48.884;9.160;2023-04-25T09:44:51;10.48;;;5.55;;
3465;SDS011;1747;48.884;9.160;2023-04-25T09:47:19;10.65;;;5.63;;
3465;SDS011;1747;48.884;9.160;2023-04-25T09:49:48;5.32;;;4.05;;
3465;SDS011;1747;48.884;9.160;2023-04-25T09:52:16;6.30;;;3.53;;
3465;SDS011;1747;48.884;9.160;2023-04-25T09:54:44;4.68;;;3.80;;
3465;SDS011;1747;48.884;9.160;2023-04-25T09:57:13;3.85;;;3.10;;
3465;SDS011;1747;48.884;9.160;2023-04-25T09:59:44;6.60;;;3.75;;
3465;SDS011;1747;48.884;9.160;2023-04-25T10:02:13;4.80;;;3.90;;
3465;SDS011;1747;48.884;9.160;2023-04-25T10:04:41;5.50;;;3.50;;
3465;SDS011;1747;48.884;9.160;2023-04-25T10:07:09;4.47;;;2.70;;
3465;SDS011;1747;48.884;9.160;2023-04-25T10:09:37;4.50;;;2.30;;
3465;SDS011;1747;48.884;9.160;2023-04-25T10:12:05;3.42;;;1.95;;
3465;SDS011;1747;48.884;9.160;2023-04-25T10:14:34;3.40;;;2.70;;
3465;SDS011;1747;48.884;9.160;2023-04-25T10:17:02;5.68;;;2.88;;
3465;SDS011;1747;48.884;9.160;2023-04-25T10:19:29;4.57;;;3.30;;
3465;SDS011;1747;48.884;9.160;2023-04-25T10:21:58;5.78;;;3.05;;
3465;SDS011;1747;48.884;9.160;2023-04-25T10:24:30;5.07;;;3.00;;
3465;SDS011;1747;48.884;9.160;2023-04-25T10:26:57;6.25;;;3.47;;
3465;SDS011;1747;48.884;9.160;2023-04-25T10:29:25;4.32;;;3.30;;
3465;SDS011;1747;48.884;9.160;2023-04-25T10:31:53;4.75;;;3.15;;
3465;SDS011;1747;48.884;9.160;2023-04-25T10:34:23;4.80;;;3.42;;
3465;SDS011;1747;48.884;9.160;2023-04-25T10:36:52;5.13;;;3.45;;
3465;SDS011;1747;48.884;9.160;2023-04-25T10:39:22;4.88;;;3.38;;
3465;SDS011;1747;48.884;9.160;2023-04-25T10:41:55;4.20;;;3.42;;
3465;SDS011;1747;48.884;9.160;2023-04-25T10:44:26;5.88;;;3.28;;
3465;SDS011;1747;48.884;9.160;2023-04-25T10:46:56;4.68;;;3.15;;
3465;SDS011;1747;48.884;9.160;2023-04-25T10:49:30;4.28;;;3.22;;
3465;SDS011;1747;48.884;9.160;2023-04-25T10:52:11;5.15;;;3.17;;
3465;SDS011;1747;48.884;9.160;2023-04-25T10:54:48;6.38;;;3.55;;
3465;SDS011;1747;48.884;9.160;2023-04-25T10:57:32;5.15;;;3.75;;
3465;SDS011;1747;48.884;9.160;2023-04-25T11:00:06;4.47;;;3.83;;
3465;SDS011;1747;48.884;9.160;2023-04-25T11:02:44;5.40;;;3.33;;
3465;SDS011;1747;48.884;9.160;2023-04-25T11:05:17;4.07;;;2.90;;
3465;SDS011;1747;48.884;9.160;2023-04-25T11:07:52;4.65;;;3.20;;
3465;SDS011;1747;48.884;9.160;2023-04-25T11:10:24;4.07;;;2.95;;
3465;SDS011;1747;48.884;9.160;2023-04-25T11:12:52;4.53;;;3.40;;
3465;SDS011;1747;48.884;9.160;2023-04-25T11:15:19;6.03;;;3.42;;
3465;SDS011;1747;48.884;9.160;2023-04-25T11:17:47;2.78;;;2.22;;
3465;SDS011;1747;48.884;9.160;2023-04-25T11:20:14;4.82;;;2.90;;
3465;SDS011;1747;48.884;9.160;2023-04-25T11:22:41;4.70;;;3.17;;
3465;SDS011;1747;48.884;9.160;2023-04-25T11:25:11;26.55;;;10.65;;
3465;SDS011;1747;48.884;9.160;2023-04-25T11:27:39;8.07;;;4.47;;
3465;SDS011;1747;48.884;9.160;2023-04-25T11:30:16;5.30;;;3.22;;
3465;SDS011;1747;48.884;9.160;2023-04-25T11:32:43;10.07;;;8.75;;
3465;SDS011;1747;48.884;9.160;2023-04-25T11:35:12;6.40;;;5.75;;
3465;SDS011;1747;48.884;9.160;2023-04-25T11:37:39;7.32;;;4.40;;
3465;SDS011;1747;48.884;9.160;2023-04-25T11:40:06;5.40;;;3.92;;
3465;SDS011;1747;48.884;9.160;2023-04-25T11:42:36;4.57;;;3.65;;
3465;SDS011;1747;48.884;9.160;2023-04-25T11:45:04;5.10;;;4.20;;
3465;SDS011;1747;48.884;9.160;2023-04-25T11:47:34;7.63;;;5.28;;
3465;SDS011;1747;48.884;9.160;2023-04-25T11:50:01;10.35;;;7.28;;
3465;SDS011;1747;48.884;9.160;2023-04-25T11:52:38;5.63;;;4.20;;
3465;SDS011;1747;48.884;9.160;2023-04-25T11:57:34;5.03;;;3.63;;
3465;SDS011;1747;48.884;9.160;2023-04-25T12:00:05;5.47;;;4.18;;
3465;SDS011;1747;48.884;9.160;2023-04-25T12:02:34;6.05;;;4.18;;
3465;SDS011;1747;48.884;9.160;2023-04-25T12:05:01;8.13;;;5.07;;
3465;SDS011;1747;48.884;9.160;2023-04-25T12:07:29;8.32;;;6.63;;
3465;SDS011;1747;48.884;9.160;2023-04-25T12:09:57;13.50;;;10.50;;
3465;SDS011;1747;48.884;9.160;2023-04-25T12:12:26;5.47;;;4.18;;
3465;SDS011;1747;48.884;9.160;2023-04-25T12:14:53;7.07;;;5.72;;
3465;SDS011;1747;48.884;9.160;2023-04-25T12:17:21;8.88;;;4.80;;
3465;SDS011;1747;48.884;9.160;2023-04-25T12:19:49;6.72;;;5.15;;
3465;SDS011;1747;48.884;9.160;2023-04-25T12:22:21;6.70;;;5.28;;
3465;SDS011;1747;48.884;9.160;2023-04-25T12:24:50;10.02;;;4.40;;
3465;SDS011;1747;48.884;9.160;2023-04-25T12:27:19;6.25;;;4.25;;
3465;SDS011;1747;48.884;9.160;2023-04-25T12:29:50;6.65;;;3.95;;
3465;SDS011;1747;48.884;9.160;2023-04-25T12:32:17;6.97;;;5.00;;
3465;SDS011;1747;48.884;9.160;2023-04-25T12:34:44;7.30;;;4.03;;
3465;SDS011;1747;48.884;9.160;2023-04-25T12:37:11;10.63;;;4.63;;
3465;SDS011;1747;48.884;9.160;2023-04-25T12:39:39;6.70;;;5.20;;
3465;SDS011;1747;48.884;9.160;2023-04-25T12:42:06;6.70;;;4.47;;
3465;SDS011;1747;48.884;9.160;2023-04-25T12:44:38;6.88;;;4.38;;
3465;SDS011;1747;48.884;9.160;2023-04-25T12:47:05;9.18;;;4.07;;
3465;SDS011;1747;48.884;9.160;2023-04-25T12:49:32;8.27;;;5.55;;
3465;SDS011;1747;48.884;9.160;2023-04-25T12:51:59;9.30;;;4.85;;
3465;SDS011;1747;48.884;9.160;2023-04-25T12:54:26;10.52;;;5.57;;
3465;SDS011;1747;48.884;9.160;2023-04-25T12:56:52;7.63;;;5.03;;
3465;SDS011;1747;48.884;9.160;2023-04-25T12:59:20;7.72;;;5.22;;
3465;SDS011;1747;48.884;9.160;2023-04-25T13:01:48;12.95;;;5.95;;
3465;SDS011;1747;48.884;9.160;2023-04-25T13:04:15;9.13;;;6.13;;
3465;SDS011;1747;48.884;9.160;2023-04-25T13:06:42;9.00;;;5.20;;
3465;SDS011;1747;48.884;9.160;2023-04-25T13:09:09;11.40;;;5.63;;
3465;SDS011;1747;48.884;9.160;2023-04-25T13:11:37;11.05;;;5.85;;
3465;SDS011;1747;48.884;9.160;2023-04-25T13:14:04;8.30;;;5.93;;
3465;SDS011;1747;48.884;9.160;2023-04-25T13:16:31;10.30;;;6.25;;
3465;SDS011;1747;48.884;9.160;2023-04-25T13:19:00;16.30;;;6.88;;
3465;SDS011;1747;48.884;9.160;2023-04-25T13:21:27;8.90;;;6.30;;
3465;SDS011;1747;48.884;9.160;2023-04-25T13:23:55;10.25;;;7.28;;
3465;SDS011;1747;48.884;9.160;2023-04-25T13:26:22;11.05;;;7.15;;
3465;SDS011;1747;48.884;9.160;2023-04-25T13:28:49;15.13;;;7.22;;
3465;SDS011;1747;48.884;9.160;2023-04-25T13:31:16;15.10;;;7.25;;
3465;SDS011;1747;48.884;9.160;2023-04-25T13:33:43;10.32;;;6.68;;
3465;SDS011;1747;48.884;9.160;2023-04-25T13:36:11;12.23;;;7.28;;
3465;SDS011;1747;48.884;9.160;2023-04-25T13:38:38;10.68;;;6.85;;
3465;SDS011;1747;48.884;9.160;2023-04-25T13:41:07;11.32;;;6.88;;
3465;SDS011;1747;48.884;9.160;2023-04-25T13:43:36;13.10;;;7.30;;
3465;SDS011;1747;48.884;9.160;2023-04-25T13:46:03;9.20;;;7.03;;
3465;SDS011;1747;48.884;9.160;2023-04-25T13:48:29;10.68;;;7.03;;
3465;SDS011;1747;48.884;9.160;2023-04-25T13:50:56;10.98;;;6.38;;
3465;SDS011;1747;48.884;9.160;2023-04-25T13:53:24;10.80;;;6.28;;
3465;SDS011;1747;48.884;9.160;2023-04-25T13:55:51;9.63;;;6.22;;
3465;SDS011;1747;48.884;9.160;2023-04-25T14:17:08;7.85;;;5.40;;
3465;SDS011;1747;48.884;9.160;2023-04-25T14:19:35;6.80;;;4.20;;
3465;SDS011;1747;48.884;9.160;2023-04-25T14:22:03;9.50;;;5.22;;
3465;SDS011;1747;48.884;9.160;2023-04-25T14:24:30;7.68;;;4.97;;
3465;SDS011;1747;48.884;9.160;2023-04-25T14:26:57;7.82;;;4.75;;
3465;SDS011;1747;48.884;9.160;2023-04-25T14:29:24;12.20;;;4.88;;
3465;SDS011;1747;48.884;9.160;2023-04-25T14:31:51;7.50;;;5.50;;
3465;SDS011;1747;48.884;9.160;2023-04-25T14:34:20;8.23;;;4.97;;
3465;SDS011;1747;48.884;9.160;2023-04-25T14:36:47;7.28;;;5.50;;
3465;SDS011;1747;48.884;9.160;2023-04-25T14:39:14;8.77;;;4.93;;
3465;SDS011;1747;48.884;9.160;2023-04-25T14:41:41;9.80;;;5.72;;
3465;SDS011;1747;48.884;9.160;2023-04-25T14:44:08;8.45;;;4.65;;
3465;SDS011;1747;48.884;9.160;2023-04-25T14:46:35;9.35;;;5.13;;
3465;SDS011;1747;48.884;9.160;2023-04-25T14:49:02;7.40;;;4.97;;
3465;SDS011;1747;48.884;9.160;2023-04-25T14:51:31;8.73;;;5.35;;
3465;SDS011;1747;48.884;9.160;2023-04-25T14:53:57;8.50;;;5.13;;
3465;SDS011;1747;48.884;9.160;2023-04-25T14:56:24;9.93;;;5.22;;
3465;SDS011;1747;48.884;9.160;2023-04-25T14:58:51;8.20;;;4.78;;
3465;SDS011;1747;48.884;9.160;2023-04-25T15:01:18;11.75;;;5.72;;
3465;SDS011;1747;48.884;9.160;2023-04-25T15:03:46;5.80;;;4.25;;
3465;SDS011;1747;48.884;9.160;2023-04-25T15:06:14;7.88;;;4.30;;
3465;SDS011;1747;48.884;9.160;2023-04-25T15:08:42;7.07;;;4.63;;
3465;SDS011;1747;48.884;9.160;2023-04-25T15:11:09;8.77;;;4.95;;
3465;SDS011;1747;48.884;9.160;2023-04-25T15:13:37;7.00;;;4.20;;
3465;SDS011;1747;48.884;9.160;2023-04-25T15:16:04;6.97;;;4.32;;
3465;SDS011;1747;48.884;9.160;2023-04-25T15:18:31;5.10;;;4.25;;
3465;SDS011;1747;48.884;9.160;2023-04-25T15:20:58;6.88;;;4.50;;
3465;SDS011;1747;48.884;9.160;2023-04-25T15:23:25;6.82;;;4.57;;
3465;SDS011;1747;48.884;9.160;2023-04-25T15:25:53;7.38;;;4.55;;
3465;SDS011;1747;48.884;9.160;2023-04-25T15:28:20;6.25;;;4.43;;
3465;SDS011;1747;48.884;9.160;2023-04-25T15:30:47;8.07;;;4.90;;
3465;SDS011;1747;48.884;9.160;2023-04-25T15:33:14;8.35;;;4.95;;
3465;SDS011;1747;48.884;9.160;2023-04-25T15:35:44;6.97;;;4.88;;
3465;SDS011;1747;48.884;9.160;2023-04-25T15:38:11;7.32;;;4.70;;
3465;SDS011;1747;48.884;9.160;2023-04-25T15:40:38;8.48;;;5.15;;